createdAt,value
2019-01-12T00:01:15.034Z,5.03
2019-01-12T00:03:46.625Z,5.77
2019-01-12T00:06:18.436Z,4.07
2019-01-12T00:08:50.906Z,6.77
2019-01-12T00:11:22.564Z,5.57
2019-01-12T00:13:53.984Z,8.40
2019-01-12T00:16:25.730Z,7.17
2019-01-12T00:18:57.498Z,4.07
2019-01-12T00:21:29.163Z,5.20
2019-01-12T00:24:00.818Z,7.20
2019-01-12T00:26:32.283Z,2.63
2019-01-12T00:29:03.836Z,8.07
2019-01-12T00:31:35.641Z,3.77
2019-01-12T00:34:07.209Z,3.43
2019-01-12T00:36:38.895Z,8.27
2019-01-12T00:39:10.598Z,4.17
2019-01-12T00:41:42.285Z,5.43
2019-01-12T00:44:13.977Z,5.80
2019-01-12T00:46:45.743Z,6.43
2019-01-12T00:49:17.379Z,5.30
2019-01-12T00:51:49.010Z,6.17
2019-01-12T00:54:20.735Z,4.47
2019-01-12T00:56:52.436Z,3.33
2019-01-12T00:59:23.956Z,6.97
2019-01-12T01:01:55.196Z,5.47
2019-01-12T01:04:26.491Z,4.90
2019-01-12T01:06:58.157Z,6.73
2019-01-12T01:09:29.889Z,6.77
2019-01-12T01:12:01.467Z,6.83
2019-01-12T01:14:33.060Z,8.37
2019-01-12T01:17:04.867Z,6.80
2019-01-12T01:19:36.492Z,4.70
2019-01-12T01:22:08.044Z,3.70
2019-01-12T01:24:45.767Z,3.87
2019-01-12T01:27:13.090Z,8.27
2019-01-12T01:29:44.710Z,5.13
2019-01-12T01:32:16.313Z,5.23
2019-01-12T01:34:47.817Z,5.70
2019-01-12T01:37:19.358Z,4.37
2019-01-12T01:39:52.028Z,5.57
2019-01-12T01:42:23.609Z,5.17
2019-01-12T01:44:55.942Z,3.50
2019-01-12T01:47:27.749Z,4.83
2019-01-12T01:50:00.172Z,2.30
2019-01-12T01:52:31.755Z,3.80
2019-01-12T01:55:03.328Z,5.93
2019-01-12T01:57:34.939Z,3.80
2019-01-12T02:00:09.967Z,2.93
2019-01-12T02:02:43.107Z,5.10
2019-01-12T02:05:15.006Z,5.73
2019-01-12T02:07:46.612Z,7.53
2019-01-12T02:10:20.348Z,4.37
2019-01-12T02:12:51.971Z,7.97
2019-01-12T02:15:24.162Z,3.60
2019-01-12T02:17:55.749Z,7.00
2019-01-12T02:20:27.233Z,7.70
2019-01-12T02:22:58.538Z,7.20
2019-01-12T02:25:30.244Z,6.43
2019-01-12T02:28:01.966Z,4.73
2019-01-12T02:30:33.266Z,3.77
2019-01-12T02:33:04.951Z,3.50
2019-01-12T02:35:36.554Z,5.97
2019-01-12T02:38:08.258Z,4.93
2019-01-12T02:40:40.886Z,2.43
2019-01-12T02:43:12.723Z,4.57
2019-01-12T02:45:44.716Z,9.83
2019-01-12T02:48:16.305Z,6.73
2019-01-12T02:50:48.083Z,7.37
2019-01-12T02:53:19.368Z,3.07
2019-01-12T02:55:51.077Z,8.07
2019-01-12T02:58:22.654Z,3.30
2019-01-12T03:00:54.179Z,5.10
2019-01-12T03:03:25.879Z,8.17
2019-01-12T03:05:57.493Z,4.00
2019-01-12T03:08:29.137Z,5.70
2019-01-12T03:11:01.796Z,3.87
2019-01-12T03:13:33.314Z,4.43
2019-01-12T03:16:05.239Z,5.60
2019-01-12T03:18:36.771Z,5.10
2019-01-12T03:21:08.391Z,5.33
2019-01-12T03:23:39.987Z,5.50
2019-01-12T03:26:11.722Z,4.77
2019-01-12T03:28:43.369Z,4.83
2019-01-12T03:31:14.930Z,4.77
2019-01-12T03:33:46.562Z,4.83
2019-01-12T03:36:18.300Z,6.60
2019-01-12T03:38:50.008Z,7.07
2019-01-12T03:41:22.766Z,5.77
2019-01-12T03:43:54.357Z,8.43
2019-01-12T03:46:26.174Z,6.33
2019-01-12T03:48:58.134Z,8.90
2019-01-12T03:51:29.608Z,6.07
2019-01-12T03:54:01.238Z,8.27
2019-01-12T03:56:32.966Z,7.77
2019-01-12T03:59:04.669Z,8.83
2019-01-12T04:01:36.218Z,9.77
2019-01-12T04:04:07.874Z,9.50
2019-01-12T04:06:39.429Z,6.90
2019-01-12T04:09:11.159Z,7.27
2019-01-12T04:11:42.935Z,6.83
2019-01-12T04:14:14.611Z,8.83
2019-01-12T04:16:46.791Z,8.67
2019-01-12T04:19:18.472Z,6.23
2019-01-12T04:21:50.354Z,6.10
2019-01-12T04:24:22.121Z,9.37
2019-01-12T04:26:54.343Z,7.77
2019-01-12T04:29:25.773Z,6.43
2019-01-12T04:31:57.437Z,11.37
2019-01-12T04:34:29.046Z,7.23
2019-01-12T04:37:00.462Z,12.37
2019-01-12T04:39:32.276Z,10.47
2019-01-12T04:42:05.872Z,9.87
2019-01-12T04:44:37.155Z,10.10
2019-01-12T04:47:09.703Z,8.03
2019-01-12T04:49:41.481Z,9.33
2019-01-12T04:52:13.094Z,15.63
2019-01-12T04:54:44.588Z,13.10
2019-01-12T04:57:16.299Z,8.87
2019-01-12T04:59:47.722Z,10.13
2019-01-12T05:02:19.335Z,11.87
2019-01-12T05:04:50.937Z,8.97
2019-01-12T05:07:22.571Z,10.93
2019-01-12T05:09:54.149Z,9.23
2019-01-12T05:12:25.843Z,9.57
2019-01-12T05:14:57.006Z,9.23
2019-01-12T05:17:28.782Z,9.30
2019-01-12T05:20:00.946Z,8.53
2019-01-12T05:22:32.640Z,10.20
2019-01-12T05:25:04.558Z,7.07
2019-01-12T05:27:36.158Z,8.00
2019-01-12T05:30:09.032Z,11.27
2019-01-12T05:32:40.556Z,11.60
2019-01-12T05:35:12.147Z,9.77
2019-01-12T05:37:44.794Z,8.43
2019-01-12T05:40:16.502Z,8.30
2019-01-12T05:42:49.495Z,9.20
2019-01-12T05:45:21.042Z,10.83
2019-01-12T05:47:52.614Z,8.70
2019-01-12T05:50:24.366Z,7.30
2019-01-12T05:52:55.774Z,8.53
2019-01-12T05:55:27.316Z,6.83
2019-01-12T05:57:58.896Z,11.53
2019-01-12T06:00:30.489Z,9.60
2019-01-12T06:03:01.938Z,5.97
2019-01-12T06:05:33.701Z,6.53
2019-01-12T06:08:05.887Z,8.37
2019-01-12T06:10:37.362Z,9.07
2019-01-12T06:13:08.925Z,7.47
2019-01-12T06:15:40.550Z,8.90
2019-01-12T06:18:12.266Z,9.27
2019-01-12T06:20:43.741Z,10.47
2019-01-12T06:23:15.541Z,8.50
2019-01-12T06:25:47.269Z,7.40
2019-01-12T06:28:18.868Z,12.13
2019-01-12T06:30:50.592Z,18.37
2019-01-12T06:33:23.755Z,18.70
2019-01-12T06:35:55.286Z,14.93
2019-01-12T06:38:28.315Z,13.10
2019-01-12T06:40:59.933Z,14.87
2019-01-12T06:43:31.514Z,15.77
2019-01-12T06:46:04.677Z,17.83
2019-01-12T06:48:36.537Z,17.10
2019-01-12T06:51:08.611Z,21.53
2019-01-12T06:53:40.154Z,21.10
2019-01-12T06:56:11.813Z,17.77
2019-01-12T06:58:43.476Z,22.13
2019-01-12T07:01:15.037Z,22.53
2019-01-12T07:03:46.743Z,22.00
2019-01-12T07:06:18.138Z,21.30
2019-01-12T07:08:49.708Z,21.50
2019-01-12T07:11:21.344Z,21.93
2019-01-12T07:13:55.642Z,21.93
2019-01-12T07:16:30.288Z,22.77
2019-01-12T07:19:01.876Z,24.07
2019-01-12T07:21:33.487Z,20.00
2019-01-12T07:24:05.070Z,18.90
2019-01-12T07:26:36.503Z,18.07
2019-01-12T07:29:08.550Z,21.23
2019-01-12T07:31:40.200Z,19.67
2019-01-12T07:34:11.913Z,17.43
2019-01-12T07:36:43.653Z,19.33
2019-01-12T07:39:16.809Z,15.53
2019-01-12T10:50:03.258Z,28.20
2019-01-12T10:52:34.315Z,32.90
2019-01-12T10:55:05.833Z,29.93
2019-01-12T10:57:36.659Z,37.27
2019-01-12T11:00:16.094Z,31.03
2019-01-12T11:02:46.947Z,34.23
2019-01-12T11:05:18.182Z,35.10
2019-01-12T11:07:49.071Z,31.47
2019-01-12T11:10:20.233Z,35.77
2019-01-12T11:12:52.249Z,34.57
2019-01-12T11:15:24.100Z,38.07
2019-01-12T11:17:54.958Z,35.93
2019-01-12T11:20:25.785Z,38.17
2019-01-12T11:22:56.680Z,37.57
2019-01-12T11:25:27.476Z,36.17
2019-01-12T11:27:58.326Z,34.67
2019-01-12T11:30:29.353Z,36.33
2019-01-12T11:33:12.074Z,32.77
2019-01-12T11:35:42.917Z,36.70
2019-01-12T11:38:36.248Z,37.70
2019-01-12T11:41:07.147Z,37.53
2019-01-12T11:43:37.981Z,38.40
2019-01-12T11:46:08.883Z,35.77
2019-01-12T11:48:39.927Z,36.80
2019-01-12T11:51:13.227Z,41.60
2019-01-12T11:53:44.045Z,37.10
2019-01-12T11:56:14.829Z,39.07
2019-01-12T11:58:45.655Z,37.77
2019-01-12T12:01:19.734Z,38.40
2019-01-12T12:03:52.158Z,34.30
2019-01-12T12:06:23.016Z,34.17
2019-01-12T12:08:53.927Z,33.77
2019-01-12T12:11:24.758Z,33.00
2019-01-12T12:13:55.647Z,32.90
2019-01-12T12:16:26.458Z,33.33
2019-01-12T12:18:57.351Z,36.10
2019-01-12T12:21:28.209Z,31.03
2019-01-12T12:23:59.086Z,34.20
2019-01-12T12:26:29.885Z,32.53
2019-01-12T12:29:00.849Z,31.13
2019-01-12T12:31:31.670Z,34.57
2019-01-12T12:34:02.572Z,35.03
2019-01-12T12:36:33.439Z,32.73
2019-01-12T12:39:06.255Z,29.67
2019-01-12T12:41:37.324Z,30.90
2019-01-12T12:44:08.239Z,29.07
2019-01-12T12:46:39.048Z,24.20
2019-01-12T12:49:10.982Z,30.07
2019-01-12T12:51:42.399Z,29.27
2019-01-12T12:54:13.445Z,30.70
2019-01-12T12:56:46.449Z,28.33
2019-01-12T12:59:17.367Z,30.10
2019-01-12T13:01:48.259Z,29.10
2019-01-12T13:04:19.195Z,27.10
2019-01-12T13:06:50.123Z,30.33
2019-01-12T13:09:20.916Z,24.70
2019-01-12T13:11:51.836Z,29.33
2019-01-12T13:14:22.721Z,28.07
2019-01-12T13:16:53.572Z,27.93
2019-01-12T13:19:24.546Z,28.20
2019-01-12T13:21:55.456Z,26.50
2019-01-12T13:24:26.270Z,27.37
2019-01-12T13:26:57.222Z,19.93
2019-01-12T13:29:27.979Z,25.97
2019-01-12T13:31:58.810Z,25.70
2019-01-12T13:34:29.794Z,23.20
2019-01-12T13:37:00.690Z,20.83
2019-01-12T13:39:32.148Z,22.67
2019-01-12T13:42:03.404Z,23.67
2019-01-12T13:44:34.224Z,21.50
2019-01-12T13:47:05.210Z,20.40
2019-01-12T13:49:36.035Z,19.50
2019-01-12T13:52:08.365Z,18.50
2019-01-12T13:54:39.223Z,19.37
2019-01-12T13:57:10.020Z,20.20
2019-01-12T13:59:40.822Z,15.07
2019-01-12T14:02:11.805Z,16.57
2019-01-12T14:04:42.632Z,16.60
2019-01-12T14:07:13.443Z,19.40
2019-01-12T14:09:44.303Z,17.73
2019-01-12T14:12:15.209Z,16.40
2019-01-12T14:14:46.013Z,20.67
2019-01-12T14:17:16.853Z,15.30
2019-01-12T14:19:48.744Z,16.23
2019-01-12T14:22:19.854Z,14.97
2019-01-12T14:24:50.672Z,14.90
2019-01-12T14:27:22.618Z,15.67
2019-01-12T14:29:53.459Z,15.70
2019-01-12T14:32:24.383Z,16.73
2019-01-12T14:34:55.278Z,14.60
2019-01-12T14:37:26.192Z,14.13
2019-01-12T14:39:57.312Z,16.50
2019-01-12T14:42:28.158Z,15.20
2019-01-12T14:44:59.093Z,14.80
2019-01-12T14:47:30.186Z,16.13
2019-01-12T14:50:01.548Z,14.55
2019-01-12T14:52:34.765Z,13.63
2019-01-12T14:55:07.259Z,13.47
2019-01-12T14:57:39.990Z,14.23
2019-01-12T15:00:29.992Z,14.23
2019-01-12T15:03:00.897Z,16.13
2019-01-12T15:05:33.275Z,14.47
2019-01-12T15:08:04.619Z,13.57
2019-01-12T15:10:37.306Z,11.70
2019-01-12T15:13:08.225Z,13.30
2019-01-12T15:15:39.061Z,12.90
2019-01-12T15:18:09.908Z,14.07
2019-01-12T15:20:40.911Z,11.37
2019-01-12T15:23:11.885Z,12.53
2019-01-12T15:25:42.787Z,10.53
2019-01-12T15:28:13.756Z,9.67
2019-01-12T15:30:44.715Z,13.40
2019-01-12T15:33:15.754Z,9.10
2019-01-12T15:35:46.982Z,10.63
2019-01-12T15:38:17.891Z,8.53
2019-01-12T15:40:49.771Z,10.07
2019-01-12T15:43:20.615Z,11.00
2019-01-12T15:45:51.575Z,14.03
2019-01-12T15:48:22.576Z,11.07
2019-01-12T15:50:53.576Z,10.70
2019-01-12T15:53:26.555Z,10.40
2019-01-12T15:55:57.477Z,10.50
2019-01-12T15:58:30.663Z,12.60
2019-01-12T16:01:01.490Z,9.57
2019-01-12T16:03:32.313Z,9.80
2019-01-12T16:06:03.185Z,10.00
2019-01-12T16:08:34.212Z,11.17
2019-01-12T16:11:05.329Z,9.43
2019-01-12T16:13:36.541Z,6.37
2019-01-12T16:16:07.450Z,3.37
2019-01-12T16:18:38.477Z,2.63
2019-01-12T16:21:09.319Z,1.57
2019-01-12T16:23:40.177Z,3.00
2019-01-12T16:26:11.137Z,3.47
2019-01-12T16:28:42.162Z,2.93
2019-01-12T16:31:13.114Z,4.07
2019-01-12T16:36:41.110Z,1.77
2019-01-12T16:39:11.975Z,4.00
2019-01-12T16:41:42.896Z,6.13
2019-01-12T16:44:13.733Z,5.87
2019-01-12T16:46:44.573Z,10.80
2019-01-12T16:49:15.478Z,7.27
2019-01-12T16:51:46.341Z,6.93
2019-01-12T16:54:17.380Z,5.77
2019-01-12T16:56:49.367Z,5.53
2019-01-12T16:59:20.212Z,6.90
2019-01-12T17:01:50.977Z,5.33
2019-01-12T17:04:21.770Z,5.63
2019-01-12T17:06:52.537Z,5.07
2019-01-12T17:09:23.412Z,8.33
2019-01-12T17:11:54.251Z,7.43
2019-01-12T17:14:26.035Z,4.77
2019-01-12T17:16:56.832Z,5.23
2019-01-12T17:19:29.580Z,5.23
2019-01-12T17:22:01.481Z,7.87
2019-01-12T17:24:32.591Z,9.67
2019-01-12T17:27:03.494Z,6.93
2019-01-12T17:29:34.433Z,8.23
2019-01-12T17:32:05.488Z,8.60
2019-01-12T17:34:37.672Z,11.13
2019-01-12T17:37:08.728Z,10.60
2019-01-12T17:39:50.199Z,12.87
2019-01-12T17:42:21.169Z,12.10
2019-01-12T17:44:51.991Z,10.43
2019-01-12T17:47:22.977Z,7.47
2019-01-12T17:49:54.147Z,10.73
2019-01-12T17:52:25.011Z,7.93
2019-01-12T17:54:56.805Z,8.83
2019-01-12T17:57:27.960Z,8.37
2019-01-12T17:59:58.946Z,11.93
2019-01-12T18:02:29.717Z,8.90
2019-01-12T18:05:02.384Z,8.23
2019-01-12T18:07:33.283Z,9.97
2019-01-12T18:10:05.429Z,9.67
2019-01-12T18:12:36.302Z,9.40
2019-01-12T18:15:09.349Z,7.83
2019-01-12T18:17:40.222Z,8.93
2019-01-12T18:20:12.951Z,10.40
2019-01-12T18:22:44.738Z,8.87
2019-01-12T18:25:16.887Z,10.57
2019-01-12T18:27:48.172Z,7.50
2019-01-12T18:30:20.189Z,7.87
2019-01-12T18:32:51.115Z,9.87
2019-01-12T18:35:22.214Z,7.53
2019-01-12T18:37:54.164Z,6.37
2019-01-12T18:40:25.164Z,8.23
2019-01-12T18:42:56.073Z,11.60
2019-01-12T18:45:27.098Z,9.90
2019-01-12T18:47:58.944Z,11.47
2019-01-12T18:50:30.497Z,9.83
2019-01-12T18:53:03.129Z,11.53
2019-01-12T18:55:35.178Z,8.43
2019-01-12T18:58:06.170Z,14.00
2019-01-12T19:00:37.118Z,12.07
2019-01-12T19:03:07.984Z,12.37
2019-01-12T19:05:39.259Z,13.20
2019-01-12T19:08:10.088Z,12.77
2019-01-12T19:10:40.995Z,13.23
2019-01-12T19:13:12.072Z,11.73
2019-01-12T19:15:42.921Z,13.03
2019-01-12T19:18:13.812Z,15.03
2019-01-12T19:20:44.624Z,10.17
2019-01-12T19:23:15.403Z,12.73
2019-01-12T19:25:46.321Z,16.67
2019-01-12T19:28:17.236Z,13.43
2019-01-12T19:30:48.171Z,9.90
2019-01-12T19:33:19.112Z,10.03
2019-01-12T19:35:49.907Z,12.27
2019-01-12T19:38:20.752Z,9.97
2019-01-12T19:40:51.690Z,9.23
2019-01-12T19:43:22.603Z,10.10
2019-01-12T19:45:53.631Z,12.83
2019-01-12T19:48:24.680Z,7.67
2019-01-12T19:50:55.734Z,11.80
2019-01-12T19:53:26.934Z,11.27
2019-01-12T19:55:58.345Z,10.43
2019-01-12T19:58:29.281Z,9.40
2019-01-12T20:01:01.746Z,12.47
2019-01-12T20:03:32.585Z,10.17
2019-01-12T20:06:05.045Z,10.10
2019-01-12T20:08:36.994Z,12.17
2019-01-12T20:11:07.920Z,6.93
2019-01-12T20:13:38.769Z,10.27
2019-01-12T20:16:12.608Z,7.83
2019-01-12T20:18:43.606Z,6.70
2019-01-12T20:21:14.569Z,10.77
2019-01-12T20:23:45.716Z,8.40
2019-01-12T20:26:17.637Z,10.83
2019-01-12T20:28:48.607Z,12.23
2019-01-12T20:31:53.035Z,15.67
2019-01-12T20:34:50.050Z,7.70
2019-01-12T20:38:10.237Z,9.17
2019-01-12T20:41:08.328Z,7.80
2019-01-12T20:44:23.153Z,5.67
2019-01-12T20:47:35.406Z,11.17
2019-01-12T20:50:44.584Z,9.13
2019-01-12T20:53:41.727Z,12.47
2019-01-12T20:57:15.985Z,13.47
2019-01-12T20:59:56.838Z,13.40
2019-01-12T21:03:17.518Z,11.63
2019-01-12T21:06:14.401Z,18.73
2019-01-12T21:09:17.797Z,14.83
2019-01-12T21:12:09.732Z,11.27
2019-01-12T21:15:24.452Z,11.67
2019-01-12T21:17:55.442Z,9.47
2019-01-12T21:20:26.846Z,8.60
2019-01-12T21:22:57.951Z,12.77
2019-01-12T21:25:28.878Z,14.20
2019-01-12T21:27:59.869Z,13.33
2019-01-12T21:30:30.804Z,12.40
2019-01-12T21:33:20.857Z,18.67
2019-01-12T21:35:55.498Z,16.70
2019-01-12T21:38:26.469Z,12.97
2019-01-12T21:40:57.430Z,13.63
2019-01-12T21:43:28.384Z,12.73
2019-01-12T21:46:00.556Z,14.93
2019-01-12T21:48:31.588Z,15.63
2019-01-12T21:51:02.572Z,16.53
2019-01-12T21:53:33.439Z,17.30
2019-01-12T21:56:04.639Z,15.43
2019-01-12T21:58:36.009Z,12.43
2019-01-12T22:01:07.331Z,16.33
2019-01-12T22:03:38.263Z,15.57
2019-01-12T22:06:09.349Z,19.43
2019-01-12T22:08:40.453Z,13.03
2019-01-12T22:11:12.379Z,21.13
2019-01-12T22:13:43.318Z,17.03
2019-01-12T22:16:14.399Z,14.40
2019-01-12T22:18:46.939Z,8.80
2019-01-12T22:21:17.896Z,13.70
2019-01-12T22:23:48.841Z,12.83
2019-01-12T22:26:19.875Z,13.17
2019-01-12T22:28:51.023Z,11.90
2019-01-12T22:31:23.090Z,14.70
2019-01-12T22:33:53.994Z,8.20
2019-01-12T22:36:25.186Z,15.97
2019-01-12T22:38:56.071Z,13.97
2019-01-12T22:41:27.051Z,11.40
2019-01-12T22:43:57.934Z,13.70
2019-01-12T22:46:28.943Z,10.03
2019-01-12T22:49:01.339Z,13.70
2019-01-12T22:51:35.122Z,16.13
2019-01-12T22:54:06.904Z,9.73
2019-01-12T22:56:38.140Z,15.60
2019-01-12T22:59:09.628Z,10.33
2019-01-12T23:02:03.121Z,11.93
2019-01-12T23:04:35.164Z,10.77
2019-01-12T23:07:11.425Z,15.47
2019-01-12T23:09:38.891Z,15.20
2019-01-12T23:12:09.957Z,15.37
2019-01-12T23:14:40.817Z,13.17
2019-01-12T23:17:11.791Z,12.17
2019-01-12T23:19:42.606Z,15.20
2019-01-12T23:22:13.631Z,12.40
2019-01-12T23:24:44.687Z,11.83
2019-01-12T23:27:15.594Z,14.97
2019-01-12T23:29:46.422Z,14.70
2019-01-12T23:32:17.361Z,16.77
2019-01-12T23:34:48.269Z,14.17
2019-01-12T23:37:19.361Z,16.97
2019-01-12T23:39:50.191Z,13.83
2019-01-12T23:42:21.004Z,11.67
2019-01-12T23:44:51.882Z,19.20
2019-01-12T23:47:22.851Z,13.73
2019-01-12T23:49:53.698Z,18.07
2019-01-12T23:52:24.650Z,16.73
2019-01-12T23:54:56.017Z,13.13
2019-01-12T23:57:26.876Z,19.97
2019-01-12T23:59:58.019Z,17.83
